WetterOnline ( https://www.wetteronline.de )

Wetter aktuell Místo

Aktuelles Wetter: Marienberg (640m)

6-stündlich | Neueste Meldungen
Ortszeit Temperatur Wetter
Mo, 17.06. 8:00 16.5° C bedeckt
Mo, 17.06. 2:00 11.8° C wolkig
So, 16.06. 20:00 18.9° C leicht bewölkt
So, 16.06. 14:00 19.1° C bewölkt
So, 16.06. 8:00 14.0° C fast wolkenlos
So, 16.06. 2:00 10.6° C bewölkt
Sa, 15.06. 20:00 17.5° C bewölkt
Sa, 15.06. 14:00 16.1° C wolkig
Ortszeit Temperatur Wetter
Mo, 17.06. 11:30 18.6° C bedeckt
Mo, 17.06. 11:10 18.4° C bedeckt
Mo, 17.06. 11:00 18.1° C bedeckt
Mo, 17.06. 10:50 18.1° C bedeckt
Mo, 17.06. 10:40 17.8° C Sprühregen
Mo, 17.06. 10:30 18.7° C bedeckt
Mo, 17.06. 10:00 18.2° C bedeckt
Mo, 17.06. 9:30 18.6° C bewölkt
Mo, 17.06. 9:00 17.1° C bewölkt
Mo, 17.06. 8:30 16.4° C leichter Regen
Ortszeit Relative Feuchte Sichtweite
Mo, 17.06. 8:00 70% 55 km
Mo, 17.06. 2:00 85% 65 km
So, 16.06. 20:00 50% 60 km
So, 16.06. 14:00 48% 60 km
So, 16.06. 8:00 63% 65 km
So, 16.06. 2:00 74% >70 km
Sa, 15.06. 20:00 50% 65 km
Sa, 15.06. 14:00 65% 60 km
Ortszeit Relative Feuchte Sichtweite
Mo, 17.06. 11:30 63% 50 km
Mo, 17.06. 11:10 63% -
Mo, 17.06. 11:00 63% 60 km
Mo, 17.06. 10:50 63% -
Mo, 17.06. 10:40 64% -
Mo, 17.06. 10:30 63% 55 km
Mo, 17.06. 10:00 62% >70 km
Mo, 17.06. 9:30 62% >70 km
Mo, 17.06. 9:00 68% 65 km
Mo, 17.06. 8:30 69% 50 km
Ortszeit Niederschlagsmenge Niederschlagsart
Mo, 17.06. 8:00 0.1 l/m2 in 12 Std. Regen
Mo, 17.06. 2:00 0.1 l/m2 in 6 Std. Regen
So, 16.06. 20:00 0.0 l/m2 in 12 Std. -
So, 16.06. 14:00 0.0 l/m2 in 6 Std. -
So, 16.06. 8:00 0.0 l/m2 in 12 Std. -
So, 16.06. 2:00 0.0 l/m2 in 6 Std. -
Sa, 15.06. 20:00 2 l/m2 in 12 Std. -
Sa, 15.06. 14:00 2 l/m2 in 6 Std. Regen
Ortszeit Niederschlagsmenge Niederschlagsart
Mo, 17.06. 11:30 0.0 l/m2 in 30 Min -
Mo, 17.06. 11:10 keine Meldung -
Mo, 17.06. 11:00 <0.05 l/m2 in 1 Std. Regen
Mo, 17.06. 10:50 keine Meldung -
Mo, 17.06. 10:40 keine Meldung -
Mo, 17.06. 10:30 <0.05 l/m2 in 30 Min Schneeregen
Mo, 17.06. 10:00 0.0 l/m2 in 1 Std. -
Mo, 17.06. 9:30 0.0 l/m2 in 30 Min -
Mo, 17.06. 9:00 <0.05 l/m2 in 1 Std. Regen
Mo, 17.06. 8:30 <0.05 l/m2 in 30 Min -
Ortszeit Stärke Spitze Richtung
km/h Bft. km/h Grad Sektor
Mo, 17.06. 8:00 4 1 14 190° S
Mo, 17.06. 2:00 4 1 29 240° SW
So, 16.06. 20:00 9 2 30 210° SW
So, 16.06. 14:00 13 3 31 200° S
So, 16.06. 8:00 11 2 18 240° SW
So, 16.06. 2:00 4 1 25 190° S
Sa, 15.06. 20:00 9 2 41 260° W
Sa, 15.06. 14:00 24 4 41 260° W
Ortszeit Stärke Spitze Richtung
km/h Bft. km/h Grad Sektor
Mo, 17.06. 11:30 18 3 32 240° SW
Mo, 17.06. 11:10 13 3 - 230° SW
Mo, 17.06. 11:00 11 2 29 240° SW
Mo, 17.06. 10:50 11 2 - 240° SW
Mo, 17.06. 10:40 13 3 - 240° SW
Mo, 17.06. 10:30 18 3 29 260° W
Mo, 17.06. 10:00 17 3 37 250° W
Mo, 17.06. 9:30 11 2 26 220° SW
Mo, 17.06. 9:00 9 2 20 220° SW
Mo, 17.06. 8:30 7 2 14 220° SW
Ortszeit Untergrenze Bedeckung Gattung
total tief tief mittel hoch
Mo, 17.06. 8:00 2100 m 8/8 8/8 - - -
Mo, 17.06. 2:00 2700 m 8/8 1/8 - - -
So, 16.06. 20:00 1500 m 6/8 1/8 - - -
So, 16.06. 14:00 2700 m 7/8 7/8 - - -
So, 16.06. 8:00 8700 m 2/8 0/8 - - -
So, 16.06. 2:00 5100 m 7/8 7/8 - - -
Sa, 15.06. 20:00 1500 m 7/8 7/8 - - -
Sa, 15.06. 14:00 780 m 6/8 3/8 - - -
Ortszeit Bedeckungsgrad in Achtel und Wolkenuntergrenze
Mo, 17.06. 11:30 2(1230m) 7(1500m) 8(1800m)
Mo, 17.06. 11:10 8
Mo, 17.06. 11:00 2(1200m) 8(1800m) 8(2400m)
Mo, 17.06. 10:50 2(1200m) 8(1800m) 8(2400m)
Mo, 17.06. 10:40 8
Mo, 17.06. 10:30 1(990m) 7(1800m) 8(2400m)
Mo, 17.06. 10:00 3(1020m) 8(2100m) 8(4200m)
Mo, 17.06. 9:30 7(2100m) 7(3900m) 7(5100m)
Mo, 17.06. 9:00 4(1500m) 8(3600m) 8(5700m)
Mo, 17.06. 8:30 4(1500m) 7(2100m) 8(4500m)
Ortszeit Luftdruck NN (hPa) Tendenz (hPa in 3 Std.)
Mo, 17.06. 8:00 1012 + 0,1
Mo, 17.06. 2:00 1013 + 0,4
So, 16.06. 20:00 1009 + 0,3
So, 16.06. 14:00 1010 - 0,5
So, 16.06. 8:00 1012 + 0,4
So, 16.06. 2:00 1012 + 0,3
Sa, 15.06. 20:00 1009 + 0,4
Sa, 15.06. 14:00 1008 + 0,5
Ortszeit Luftdruck NN (hPa) Tendenz (hPa in 3 Std.)
Mo, 17.06. 11:30 1012 + 0,2
Mo, 17.06. 11:10 1013 keine Meldung
Mo, 17.06. 11:00 1013 + 0,6
Mo, 17.06. 10:50 1013 keine Meldung
Mo, 17.06. 10:40 1013 keine Meldung
Mo, 17.06. 10:30 1012 + 0,5
Mo, 17.06. 10:00 1012 + 0,3
Mo, 17.06. 9:30 1012 + 0,2
Mo, 17.06. 9:00 1013 + 0,4
Mo, 17.06. 8:30 1013 + 0,5
Ortszeit Schneehöhe (cm)
Mo, 17.06. 8:00 0
Mo, 17.06. 2:00 0
So, 16.06. 20:00 0
So, 16.06. 14:00 0
So, 16.06. 8:00 0
So, 16.06. 2:00 0
Sa, 15.06. 20:00 0
Sa, 15.06. 14:00 0
Ortszeit Schneehöhe (cm)
Mo, 17.06. 11:30 0
Mo, 17.06. 11:10 -
Mo, 17.06. 11:00 0
Mo, 17.06. 10:50 0
Mo, 17.06. 10:40 -
Mo, 17.06. 10:30 0
Mo, 17.06. 10:00 0
Mo, 17.06. 9:30 0
Mo, 17.06. 9:00 0
Mo, 17.06. 8:30 0
Link zu dieser Seite / Seite empfehlen

Das Wetter in ...